sensor_id;sensor_type;location;lat;lon;timestamp;P1;durP1;ratioP1;P2;durP2;ratioP2
41201;SDS011;26936;50.524;8.684;2023-05-07T00:00:12;3.53;;;2.60;;
41201;SDS011;26936;50.524;8.684;2023-05-07T00:02:40;3.60;;;2.45;;
41201;SDS011;26936;50.524;8.684;2023-05-07T00:05:05;3.47;;;2.75;;
41201;SDS011;26936;50.524;8.684;2023-05-07T00:07:31;5.05;;;2.90;;
41201;SDS011;26936;50.524;8.684;2023-05-07T00:09:56;4.10;;;2.78;;
41201;SDS011;26936;50.524;8.684;2023-05-07T00:12:22;4.40;;;2.70;;
41201;SDS011;26936;50.524;8.684;2023-05-07T00:14:47;5.45;;;2.83;;
41201;SDS011;26936;50.524;8.684;2023-05-07T00:17:12;4.53;;;2.88;;
41201;SDS011;26936;50.524;8.684;2023-05-07T00:19:38;5.43;;;2.65;;
41201;SDS011;26936;50.524;8.684;2023-05-07T00:22:03;7.18;;;3.50;;
41201;SDS011;26936;50.524;8.684;2023-05-07T00:24:28;5.13;;;4.07;;
41201;SDS011;26936;50.524;8.684;2023-05-07T00:26:53;5.80;;;2.90;;
41201;SDS011;26936;50.524;8.684;2023-05-07T00:29:19;4.13;;;3.60;;
41201;SDS011;26936;50.524;8.684;2023-05-07T00:31:44;4.03;;;2.95;;
41201;SDS011;26936;50.524;8.684;2023-05-07T00:34:10;4.97;;;3.75;;
41201;SDS011;26936;50.524;8.684;2023-05-07T00:36:35;6.87;;;3.73;;
41201;SDS011;26936;50.524;8.684;2023-05-07T00:39:00;6.20;;;3.85;;
41201;SDS011;26936;50.524;8.684;2023-05-07T00:41:28;3.83;;;2.70;;
41201;SDS011;26936;50.524;8.684;2023-05-07T00:43:54;4.15;;;2.78;;
41201;SDS011;26936;50.524;8.684;2023-05-07T00:46:20;4.57;;;3.30;;
41201;SDS011;26936;50.524;8.684;2023-05-07T00:48:45;6.18;;;3.25;;
41201;SDS011;26936;50.524;8.684;2023-05-07T00:51:12;5.03;;;3.50;;
41201;SDS011;26936;50.524;8.684;2023-05-07T00:53:37;6.50;;;3.33;;
41201;SDS011;26936;50.524;8.684;2023-05-07T00:56:03;6.70;;;2.90;;
41201;SDS011;26936;50.524;8.684;2023-05-07T00:58:31;7.22;;;3.28;;
41201;SDS011;26936;50.524;8.684;2023-05-07T01:00:57;4.10;;;3.00;;
41201;SDS011;26936;50.524;8.684;2023-05-07T01:03:23;4.95;;;2.65;;
41201;SDS011;26936;50.524;8.684;2023-05-07T01:05:48;6.80;;;3.75;;
41201;SDS011;26936;50.524;8.684;2023-05-07T01:08:15;5.93;;;3.45;;
41201;SDS011;26936;50.524;8.684;2023-05-07T01:10:42;5.05;;;3.10;;
41201;SDS011;26936;50.524;8.684;2023-05-07T01:13:09;5.47;;;3.30;;
41201;SDS011;26936;50.524;8.684;2023-05-07T01:15:35;5.97;;;3.28;;
41201;SDS011;26936;50.524;8.684;2023-05-07T01:18:01;6.53;;;3.30;;
41201;SDS011;26936;50.524;8.684;2023-05-07T01:20:26;4.55;;;3.40;;
41201;SDS011;26936;50.524;8.684;2023-05-07T01:22:53;4.75;;;3.25;;
41201;SDS011;26936;50.524;8.684;2023-05-07T01:25:19;4.80;;;3.30;;
41201;SDS011;26936;50.524;8.684;2023-05-07T01:27:45;5.40;;;3.17;;
41201;SDS011;26936;50.524;8.684;2023-05-07T01:30:10;7.55;;;3.65;;
41201;SDS011;26936;50.524;8.684;2023-05-07T01:35:19;6.88;;;3.17;;
41201;SDS011;26936;50.524;8.684;2023-05-07T01:37:47;6.50;;;3.50;;
41201;SDS011;26936;50.524;8.684;2023-05-07T01:40:13;5.82;;;3.15;;
41201;SDS011;26936;50.524;8.684;2023-05-07T01:42:38;4.68;;;2.65;;
41201;SDS011;26936;50.524;8.684;2023-05-07T01:45:05;6.53;;;3.35;;
41201;SDS011;26936;50.524;8.684;2023-05-07T01:47:31;5.30;;;3.50;;
41201;SDS011;26936;50.524;8.684;2023-05-07T01:49:57;4.88;;;2.90;;
41201;SDS011;26936;50.524;8.684;2023-05-07T01:52:23;6.13;;;3.00;;
41201;SDS011;26936;50.524;8.684;2023-05-07T01:54:51;4.63;;;2.88;;
41201;SDS011;26936;50.524;8.684;2023-05-07T01:57:16;7.17;;;3.40;;
41201;SDS011;26936;50.524;8.684;2023-05-07T01:59:41;4.47;;;3.00;;
41201;SDS011;26936;50.524;8.684;2023-05-07T02:02:06;4.50;;;2.80;;
41201;SDS011;26936;50.524;8.684;2023-05-07T02:04:32;4.30;;;3.10;;
41201;SDS011;26936;50.524;8.684;2023-05-07T02:06:57;5.13;;;3.00;;
41201;SDS011;26936;50.524;8.684;2023-05-07T02:09:22;8.05;;;3.20;;
41201;SDS011;26936;50.524;8.684;2023-05-07T02:11:48;4.45;;;3.10;;
41201;SDS011;26936;50.524;8.684;2023-05-07T02:14:13;6.22;;;3.25;;
41201;SDS011;26936;50.524;8.684;2023-05-07T02:16:39;3.22;;;2.78;;
41201;SDS011;26936;50.524;8.684;2023-05-07T02:19:04;4.78;;;3.13;;
41201;SDS011;26936;50.524;8.684;2023-05-07T02:21:30;5.70;;;2.90;;
41201;SDS011;26936;50.524;8.684;2023-05-07T02:23:55;4.20;;;3.20;;
41201;SDS011;26936;50.524;8.684;2023-05-07T02:26:20;4.70;;;3.07;;
41201;SDS011;26936;50.524;8.684;2023-05-07T02:28:46;5.00;;;2.90;;
41201;SDS011;26936;50.524;8.684;2023-05-07T02:31:12;5.10;;;3.10;;
41201;SDS011;26936;50.524;8.684;2023-05-07T02:33:37;4.05;;;2.70;;
41201;SDS011;26936;50.524;8.684;2023-05-07T02:36:06;3.63;;;2.95;;
41201;SDS011;26936;50.524;8.684;2023-05-07T02:38:33;4.93;;;3.50;;
41201;SDS011;26936;50.524;8.684;2023-05-07T02:40:59;6.90;;;3.75;;
41201;SDS011;26936;50.524;8.684;2023-05-07T02:43:24;6.05;;;3.67;;
41201;SDS011;26936;50.524;8.684;2023-05-07T02:45:59;5.40;;;3.33;;
41201;SDS011;26936;50.524;8.684;2023-05-07T02:48:27;5.15;;;3.42;;
41201;SDS011;26936;50.524;8.684;2023-05-07T02:50:52;5.53;;;3.43;;
41201;SDS011;26936;50.524;8.684;2023-05-07T02:53:18;5.07;;;3.70;;
41201;SDS011;26936;50.524;8.684;2023-05-07T02:55:43;4.83;;;3.33;;
41201;SDS011;26936;50.524;8.684;2023-05-07T02:58:08;5.55;;;3.40;;
41201;SDS011;26936;50.524;8.684;2023-05-07T03:00:34;7.80;;;3.67;;
41201;SDS011;26936;50.524;8.684;2023-05-07T03:02:59;6.93;;;3.83;;
41201;SDS011;26936;50.524;8.684;2023-05-07T03:05:25;5.28;;;3.50;;
41201;SDS011;26936;50.524;8.684;2023-05-07T03:07:50;8.43;;;4.03;;
41201;SDS011;26936;50.524;8.684;2023-05-07T03:10:15;5.83;;;3.80;;
41201;SDS011;26936;50.524;8.684;2023-05-07T03:12:41;8.05;;;3.65;;
41201;SDS011;26936;50.524;8.684;2023-05-07T03:15:06;5.43;;;3.70;;
41201;SDS011;26936;50.524;8.684;2023-05-07T03:17:32;4.93;;;3.40;;
41201;SDS011;26936;50.524;8.684;2023-05-07T03:19:57;5.90;;;3.95;;
41201;SDS011;26936;50.524;8.684;2023-05-07T03:22:22;6.37;;;3.87;;
41201;SDS011;26936;50.524;8.684;2023-05-07T03:24:48;5.30;;;3.30;;
41201;SDS011;26936;50.524;8.684;2023-05-07T03:27:13;6.03;;;3.73;;
41201;SDS011;26936;50.524;8.684;2023-05-07T03:29:38;7.90;;;3.70;;
41201;SDS011;26936;50.524;8.684;2023-05-07T03:32:03;7.35;;;3.95;;
41201;SDS011;26936;50.524;8.684;2023-05-07T03:34:29;6.80;;;4.07;;
41201;SDS011;26936;50.524;8.684;2023-05-07T03:36:54;5.20;;;3.60;;
41201;SDS011;26936;50.524;8.684;2023-05-07T03:39:20;6.18;;;3.95;;
41201;SDS011;26936;50.524;8.684;2023-05-07T03:41:46;5.00;;;3.83;;
41201;SDS011;26936;50.524;8.684;2023-05-07T03:44:11;7.57;;;4.00;;
41201;SDS011;26936;50.524;8.684;2023-05-07T03:46:36;6.83;;;3.93;;
41201;SDS011;26936;50.524;8.684;2023-05-07T03:49:01;6.23;;;4.57;;
41201;SDS011;26936;50.524;8.684;2023-05-07T03:51:27;5.75;;;3.90;;
41201;SDS011;26936;50.524;8.684;2023-05-07T03:53:52;6.40;;;3.90;;
41201;SDS011;26936;50.524;8.684;2023-05-07T03:56:18;7.75;;;4.22;;
41201;SDS011;26936;50.524;8.684;2023-05-07T03:58:44;5.45;;;4.18;;
41201;SDS011;26936;50.524;8.684;2023-05-07T04:01:09;8.30;;;4.60;;
41201;SDS011;26936;50.524;8.684;2023-05-07T04:03:34;9.95;;;4.55;;
41201;SDS011;26936;50.524;8.684;2023-05-07T04:06:00;6.30;;;4.47;;
41201;SDS011;26936;50.524;8.684;2023-05-07T04:08:25;7.22;;;4.45;;
41201;SDS011;26936;50.524;8.684;2023-05-07T04:10:54;6.05;;;4.40;;
41201;SDS011;26936;50.524;8.684;2023-05-07T04:13:23;8.13;;;4.73;;
41201;SDS011;26936;50.524;8.684;2023-05-07T04:15:48;7.90;;;5.30;;
41201;SDS011;26936;50.524;8.684;2023-05-07T04:18:14;8.60;;;4.95;;
41201;SDS011;26936;50.524;8.684;2023-05-07T04:20:39;8.95;;;5.28;;
41201;SDS011;26936;50.524;8.684;2023-05-07T04:23:05;7.93;;;5.40;;
41201;SDS011;26936;50.524;8.684;2023-05-07T04:25:30;7.50;;;5.45;;
41201;SDS011;26936;50.524;8.684;2023-05-07T04:27:55;8.13;;;5.72;;
41201;SDS011;26936;50.524;8.684;2023-05-07T04:30:21;7.47;;;5.40;;
41201;SDS011;26936;50.524;8.684;2023-05-07T04:32:46;7.47;;;5.05;;
41201;SDS011;26936;50.524;8.684;2023-05-07T04:35:13;9.52;;;6.20;;
41201;SDS011;26936;50.524;8.684;2023-05-07T04:37:38;8.20;;;5.95;;
41201;SDS011;26936;50.524;8.684;2023-05-07T04:40:03;11.35;;;7.43;;
41201;SDS011;26936;50.524;8.684;2023-05-07T04:42:29;9.38;;;6.80;;
41201;SDS011;26936;50.524;8.684;2023-05-07T04:44:55;12.27;;;6.97;;
41201;SDS011;26936;50.524;8.684;2023-05-07T04:47:20;9.93;;;7.10;;
41201;SDS011;26936;50.524;8.684;2023-05-07T04:49:46;8.05;;;6.38;;
41201;SDS011;26936;50.524;8.684;2023-05-07T04:52:11;9.57;;;7.03;;
41201;SDS011;26936;50.524;8.684;2023-05-07T04:54:36;10.03;;;7.43;;
41201;SDS011;26936;50.524;8.684;2023-05-07T04:57:03;9.07;;;7.35;;
41201;SDS011;26936;50.524;8.684;2023-05-07T04:59:29;12.80;;;6.82;;
41201;SDS011;26936;50.524;8.684;2023-05-07T05:01:55;10.35;;;7.32;;
41201;SDS011;26936;50.524;8.684;2023-05-07T05:04:20;11.07;;;7.65;;
41201;SDS011;26936;50.524;8.684;2023-05-07T05:06:45;12.30;;;8.43;;
41201;SDS011;26936;50.524;8.684;2023-05-07T05:09:11;12.63;;;8.07;;
41201;SDS011;26936;50.524;8.684;2023-05-07T05:11:36;10.50;;;7.85;;
41201;SDS011;26936;50.524;8.684;2023-05-07T05:14:01;9.52;;;7.53;;
41201;SDS011;26936;50.524;8.684;2023-05-07T05:16:27;12.63;;;8.68;;
41201;SDS011;26936;50.524;8.684;2023-05-07T05:18:52;10.68;;;7.32;;
41201;SDS011;26936;50.524;8.684;2023-05-07T05:21:19;10.18;;;7.82;;
41201;SDS011;26936;50.524;8.684;2023-05-07T05:23:45;10.73;;;8.43;;
41201;SDS011;26936;50.524;8.684;2023-05-07T05:26:10;11.15;;;8.45;;
41201;SDS011;26936;50.524;8.684;2023-05-07T05:28:36;14.57;;;8.73;;
41201;SDS011;26936;50.524;8.684;2023-05-07T05:31:01;13.85;;;8.90;;
41201;SDS011;26936;50.524;8.684;2023-05-07T05:33:26;12.83;;;9.53;;
41201;SDS011;26936;50.524;8.684;2023-05-07T05:35:53;12.25;;;9.57;;
41201;SDS011;26936;50.524;8.684;2023-05-07T05:38:19;14.43;;;8.82;;
41201;SDS011;26936;50.524;8.684;2023-05-07T05:40:45;13.93;;;9.82;;
41201;SDS011;26936;50.524;8.684;2023-05-07T05:43:11;12.48;;;9.27;;
41201;SDS011;26936;50.524;8.684;2023-05-07T05:45:36;12.17;;;9.53;;
41201;SDS011;26936;50.524;8.684;2023-05-07T05:48:01;13.55;;;9.25;;
41201;SDS011;26936;50.524;8.684;2023-05-07T05:50:27;14.18;;;10.27;;
41201;SDS011;26936;50.524;8.684;2023-05-07T05:52:52;13.88;;;10.38;;
41201;SDS011;26936;50.524;8.684;2023-05-07T05:55:17;12.35;;;9.93;;
41201;SDS011;26936;50.524;8.684;2023-05-07T05:57:42;15.97;;;11.07;;
41201;SDS011;26936;50.524;8.684;2023-05-07T06:00:08;14.07;;;11.00;;
41201;SDS011;26936;50.524;8.684;2023-05-07T06:02:34;14.18;;;11.10;;
41201;SDS011;26936;50.524;8.684;2023-05-07T06:04:59;17.08;;;11.77;;
41201;SDS011;26936;50.524;8.684;2023-05-07T06:07:25;15.27;;;11.45;;
41201;SDS011;26936;50.524;8.684;2023-05-07T06:09:50;16.73;;;12.27;;
41201;SDS011;26936;50.524;8.684;2023-05-07T06:12:15;16.42;;;12.20;;
41201;SDS011;26936;50.524;8.684;2023-05-07T06:14:42;16.27;;;12.03;;
41201;SDS011;26936;50.524;8.684;2023-05-07T06:17:08;14.57;;;11.48;;
41201;SDS011;26936;50.524;8.684;2023-05-07T06:19:33;16.73;;;12.20;;
41201;SDS011;26936;50.524;8.684;2023-05-07T06:21:58;16.05;;;11.80;;
41201;SDS011;26936;50.524;8.684;2023-05-07T06:24:26;18.58;;;13.43;;
41201;SDS011;26936;50.524;8.684;2023-05-07T06:26:51;15.65;;;12.38;;
41201;SDS011;26936;50.524;8.684;2023-05-07T06:29:16;16.92;;;12.43;;
41201;SDS011;26936;50.524;8.684;2023-05-07T06:31:42;18.52;;;11.70;;
41201;SDS011;26936;50.524;8.684;2023-05-07T06:34:07;16.83;;;12.50;;
41201;SDS011;26936;50.524;8.684;2023-05-07T06:36:32;18.25;;;13.02;;
41201;SDS011;26936;50.524;8.684;2023-05-07T06:38:58;18.40;;;12.60;;
41201;SDS011;26936;50.524;8.684;2023-05-07T06:41:23;17.33;;;13.18;;
41201;SDS011;26936;50.524;8.684;2023-05-07T06:43:48;16.98;;;12.65;;
41201;SDS011;26936;50.524;8.684;2023-05-07T06:46:14;16.45;;;12.75;;
41201;SDS011;26936;50.524;8.684;2023-05-07T06:48:39;18.40;;;13.65;;
41201;SDS011;26936;50.524;8.684;2023-05-07T06:51:05;16.95;;;13.07;;
41201;SDS011;26936;50.524;8.684;2023-05-07T06:53:30;19.17;;;13.95;;
41201;SDS011;26936;50.524;8.684;2023-05-07T06:55:56;19.33;;;14.30;;
41201;SDS011;26936;50.524;8.684;2023-05-07T06:58:21;21.88;;;14.35;;
41201;SDS011;26936;50.524;8.684;2023-05-07T07:00:47;18.65;;;13.63;;
41201;SDS011;26936;50.524;8.684;2023-05-07T07:03:12;18.02;;;14.18;;
41201;SDS011;26936;50.524;8.684;2023-05-07T07:05:38;18.70;;;14.35;;
41201;SDS011;26936;50.524;8.684;2023-05-07T07:08:03;20.70;;;13.60;;
41201;SDS011;26936;50.524;8.684;2023-05-07T07:10:28;20.23;;;14.45;;
41201;SDS011;26936;50.524;8.684;2023-05-07T07:12:54;16.52;;;13.13;;
41201;SDS011;26936;50.524;8.684;2023-05-07T07:15:19;19.27;;;13.15;;
41201;SDS011;26936;50.524;8.684;2023-05-07T07:17:50;17.67;;;12.82;;
41201;SDS011;26936;50.524;8.684;2023-05-07T07:20:15;17.58;;;12.80;;
41201;SDS011;26936;50.524;8.684;2023-05-07T07:22:41;17.38;;;12.93;;
41201;SDS011;26936;50.524;8.684;2023-05-07T07:25:06;18.55;;;12.98;;
41201;SDS011;26936;50.524;8.684;2023-05-07T07:27:32;17.00;;;12.32;;
41201;SDS011;26936;50.524;8.684;2023-05-07T07:29:57;18.33;;;12.52;;
41201;SDS011;26936;50.524;8.684;2023-05-07T07:32:22;19.10;;;12.77;;
41201;SDS011;26936;50.524;8.684;2023-05-07T07:34:47;15.75;;;11.40;;
41201;SDS011;26936;50.524;8.684;2023-05-07T07:37:13;15.07;;;11.20;;
41201;SDS011;26936;50.524;8.684;2023-05-07T07:39:38;16.27;;;12.38;;
41201;SDS011;26936;50.524;8.684;2023-05-07T07:42:03;18.55;;;12.68;;
41201;SDS011;26936;50.524;8.684;2023-05-07T07:44:29;17.10;;;12.27;;
41201;SDS011;26936;50.524;8.684;2023-05-07T07:46:54;15.48;;;11.30;;
41201;SDS011;26936;50.524;8.684;2023-05-07T07:49:19;16.20;;;11.93;;
41201;SDS011;26936;50.524;8.684;2023-05-07T07:51:45;14.93;;;11.40;;
41201;SDS011;26936;50.524;8.684;2023-05-07T07:54:10;14.02;;;11.10;;
41201;SDS011;26936;50.524;8.684;2023-05-07T07:56:35;15.13;;;11.23;;
41201;SDS011;26936;50.524;8.684;2023-05-07T07:59:01;15.50;;;10.77;;
41201;SDS011;26936;50.524;8.684;2023-05-07T08:01:26;12.65;;;10.82;;
41201;SDS011;26936;50.524;8.684;2023-05-07T08:03:53;14.35;;;11.15;;
41201;SDS011;26936;50.524;8.684;2023-05-07T08:06:18;15.67;;;11.70;;
41201;SDS011;26936;50.524;8.684;2023-05-07T08:08:43;14.38;;;10.55;;
41201;SDS011;26936;50.524;8.684;2023-05-07T08:11:09;15.07;;;11.27;;
41201;SDS011;26936;50.524;8.684;2023-05-07T08:13:35;15.38;;;10.82;;
41201;SDS011;26936;50.524;8.684;2023-05-07T08:16:01;14.25;;;10.90;;
41201;SDS011;26936;50.524;8.684;2023-05-07T08:18:26;15.52;;;11.48;;
41201;SDS011;26936;50.524;8.684;2023-05-07T08:20:53;13.23;;;9.82;;
41201;SDS011;26936;50.524;8.684;2023-05-07T08:23:19;14.40;;;10.48;;
41201;SDS011;26936;50.524;8.684;2023-05-07T08:25:45;14.95;;;9.90;;
41201;SDS011;26936;50.524;8.684;2023-05-07T08:28:10;14.48;;;10.20;;
41201;SDS011;26936;50.524;8.684;2023-05-07T08:30:35;13.02;;;9.60;;
41201;SDS011;26936;50.524;8.684;2023-05-07T08:33:01;9.80;;;8.70;;
41201;SDS011;26936;50.524;8.684;2023-05-07T08:35:26;11.60;;;8.73;;
41201;SDS011;26936;50.524;8.684;2023-05-07T08:37:52;11.85;;;8.10;;
41201;SDS011;26936;50.524;8.684;2023-05-07T08:40:18;14.50;;;9.63;;
41201;SDS011;26936;50.524;8.684;2023-05-07T08:42:43;12.23;;;9.45;;
41201;SDS011;26936;50.524;8.684;2023-05-07T08:45:09;11.00;;;8.48;;
41201;SDS011;26936;50.524;8.684;2023-05-07T08:47:39;13.05;;;8.13;;
41201;SDS011;26936;50.524;8.684;2023-05-07T08:50:09;9.32;;;7.55;;
41201;SDS011;26936;50.524;8.684;2023-05-07T08:52:35;11.10;;;8.35;;
41201;SDS011;26936;50.524;8.684;2023-05-07T08:55:02;11.43;;;8.48;;
41201;SDS011;26936;50.524;8.684;2023-05-07T08:57:27;13.27;;;8.75;;
41201;SDS011;26936;50.524;8.684;2023-05-07T08:59:53;11.98;;;8.27;;
41201;SDS011;26936;50.524;8.684;2023-05-07T09:02:18;12.00;;;8.68;;
41201;SDS011;26936;50.524;8.684;2023-05-07T09:04:43;11.52;;;9.43;;
41201;SDS011;26936;50.524;8.684;2023-05-07T09:07:09;13.48;;;9.63;;
41201;SDS011;26936;50.524;8.684;2023-05-07T09:09:34;17.27;;;9.63;;
41201;SDS011;26936;50.524;8.684;2023-05-07T09:12:00;13.70;;;9.40;;
41201;SDS011;26936;50.524;8.684;2023-05-07T09:14:26;12.48;;;9.88;;
41201;SDS011;26936;50.524;8.684;2023-05-07T09:16:52;12.98;;;9.52;;
41201;SDS011;26936;50.524;8.684;2023-05-07T09:19:22;13.23;;;9.13;;
41201;SDS011;26936;50.524;8.684;2023-05-07T09:21:48;11.82;;;9.20;;
41201;SDS011;26936;50.524;8.684;2023-05-07T09:24:15;12.17;;;8.90;;
41201;SDS011;26936;50.524;8.684;2023-05-07T09:26:41;12.48;;;9.70;;
41201;SDS011;26936;50.524;8.684;2023-05-07T09:29:07;11.63;;;8.03;;
41201;SDS011;26936;50.524;8.684;2023-05-07T09:31:38;12.45;;;9.50;;
41201;SDS011;26936;50.524;8.684;2023-05-07T09:34:04;12.02;;;8.38;;
41201;SDS011;26936;50.524;8.684;2023-05-07T09:36:31;13.90;;;7.82;;
41201;SDS011;26936;50.524;8.684;2023-05-07T09:38:59;13.68;;;8.80;;
41201;SDS011;26936;50.524;8.684;2023-05-07T09:41:24;15.80;;;10.70;;
41201;SDS011;26936;50.524;8.684;2023-05-07T09:43:53;11.15;;;8.52;;
41201;SDS011;26936;50.524;8.684;2023-05-07T09:46:18;12.60;;;9.13;;
41201;SDS011;26936;50.524;8.684;2023-05-07T09:48:49;9.43;;;7.07;;
41201;SDS011;26936;50.524;8.684;2023-05-07T09:53:57;8.77;;;7.25;;
41201;SDS011;26936;50.524;8.684;2023-05-07T09:56:29;8.82;;;7.47;;
41201;SDS011;26936;50.524;8.684;2023-05-07T09:58:56;10.50;;;6.90;;
41201;SDS011;26936;50.524;8.684;2023-05-07T10:01:22;8.40;;;6.47;;
41201;SDS011;26936;50.524;8.684;2023-05-07T10:03:50;10.35;;;7.03;;
41201;SDS011;26936;50.524;8.684;2023-05-07T10:06:17;9.82;;;6.95;;
41201;SDS011;26936;50.524;8.684;2023-05-07T10:08:43;9.73;;;7.30;;
41201;SDS011;26936;50.524;8.684;2023-05-07T10:11:09;8.25;;;6.25;;
41201;SDS011;26936;50.524;8.684;2023-05-07T10:13:35;7.43;;;6.20;;
41201;SDS011;26936;50.524;8.684;2023-05-07T10:16:05;8.45;;;6.07;;
41201;SDS011;26936;50.524;8.684;2023-05-07T10:18:31;8.30;;;6.45;;
41201;SDS011;26936;50.524;8.684;2023-05-07T10:21:17;8.30;;;6.00;;
41201;SDS011;26936;50.524;8.684;2023-05-07T10:23:44;6.95;;;6.22;;
41201;SDS011;26936;50.524;8.684;2023-05-07T10:26:13;7.15;;;5.47;;
41201;SDS011;26936;50.524;8.684;2023-05-07T10:28:41;7.63;;;6.32;;
41201;SDS011;26936;50.524;8.684;2023-05-07T10:33:42;8.20;;;6.13;;
41201;SDS011;26936;50.524;8.684;2023-05-07T10:36:11;7.00;;;5.78;;
41201;SDS011;26936;50.524;8.684;2023-05-07T10:38:37;6.75;;;5.55;;
41201;SDS011;26936;50.524;8.684;2023-05-07T10:41:04;7.32;;;6.10;;
41201;SDS011;26936;50.524;8.684;2023-05-07T10:46:10;6.70;;;5.50;;
41201;SDS011;26936;50.524;8.684;2023-05-07T10:51:25;6.75;;;5.35;;
41201;SDS011;26936;50.524;8.684;2023-05-07T10:56:34;9.38;;;6.18;;
41201;SDS011;26936;50.524;8.684;2023-05-07T10:59:29;7.95;;;5.65;;
41201;SDS011;26936;50.524;8.684;2023-05-07T11:01:54;6.15;;;5.07;;
41201;SDS011;26936;50.524;8.684;2023-05-07T11:04:22;9.70;;;5.18;;
41201;SDS011;26936;50.524;8.684;2023-05-07T11:12:18;9.43;;;5.78;;
41201;SDS011;26936;50.524;8.684;2023-05-07T11:15:13;7.13;;;5.35;;
41201;SDS011;26936;50.524;8.684;2023-05-07T11:17:53;6.32;;;5.25;;
41201;SDS011;26936;50.524;8.684;2023-05-07T11:20:20;7.70;;;5.53;;
41201;SDS011;26936;50.524;8.684;2023-05-07T11:22:46;6.88;;;5.40;;
41201;SDS011;26936;50.524;8.684;2023-05-07T11:25:17;8.48;;;5.60;;
41201;SDS011;26936;50.524;8.684;2023-05-07T11:27:46;8.45;;;5.82;;
41201;SDS011;26936;50.524;8.684;2023-05-07T11:30:20;6.55;;;5.55;;
41201;SDS011;26936;50.524;8.684;2023-05-07T11:32:47;7.15;;;5.68;;
41201;SDS011;26936;50.524;8.684;2023-05-07T11:35:13;8.15;;;5.20;;
41201;SDS011;26936;50.524;8.684;2023-05-07T11:37:40;6.00;;;5.30;;
41201;SDS011;26936;50.524;8.684;2023-05-07T11:40:06;7.38;;;5.13;;
41201;SDS011;26936;50.524;8.684;2023-05-07T11:42:34;8.20;;;5.18;;
41201;SDS011;26936;50.524;8.684;2023-05-07T11:45:04;7.45;;;5.50;;
41201;SDS011;26936;50.524;8.684;2023-05-07T11:47:31;7.90;;;5.40;;
41201;SDS011;26936;50.524;8.684;2023-05-07T11:49:57;7.00;;;5.50;;
41201;SDS011;26936;50.524;8.684;2023-05-07T11:52:26;9.77;;;5.90;;
41201;SDS011;26936;50.524;8.684;2023-05-07T11:54:52;7.53;;;5.20;;
41201;SDS011;26936;50.524;8.684;2023-05-07T11:57:22;7.18;;;5.38;;
41201;SDS011;26936;50.524;8.684;2023-05-07T11:59:58;7.97;;;5.43;;
41201;SDS011;26936;50.524;8.684;2023-05-07T12:02:27;7.05;;;5.40;;
41201;SDS011;26936;50.524;8.684;2023-05-07T12:04:53;6.90;;;5.05;;
41201;SDS011;26936;50.524;8.684;2023-05-07T12:07:19;7.30;;;5.20;;
41201;SDS011;26936;50.524;8.684;2023-05-07T12:09:44;6.82;;;5.20;;
41201;SDS011;26936;50.524;8.684;2023-05-07T12:12:11;6.55;;;5.22;;
41201;SDS011;26936;50.524;8.684;2023-05-07T12:14:38;5.95;;;4.60;;
41201;SDS011;26936;50.524;8.684;2023-05-07T12:17:08;7.20;;;5.45;;
41201;SDS011;26936;50.524;8.684;2023-05-07T12:19:35;6.90;;;5.05;;
41201;SDS011;26936;50.524;8.684;2023-05-07T12:22:02;6.65;;;5.43;;
41201;SDS011;26936;50.524;8.684;2023-05-07T12:24:28;6.13;;;4.45;;
41201;SDS011;26936;50.524;8.684;2023-05-07T12:26:53;7.22;;;4.63;;
41201;SDS011;26936;50.524;8.684;2023-05-07T12:29:22;7.00;;;4.72;;
41201;SDS011;26936;50.524;8.684;2023-05-07T12:31:50;7.10;;;5.03;;
41201;SDS011;26936;50.524;8.684;2023-05-07T12:34:15;7.68;;;5.40;;
41201;SDS011;26936;50.524;8.684;2023-05-07T12:36:41;5.63;;;4.85;;
41201;SDS011;26936;50.524;8.684;2023-05-07T12:39:06;5.55;;;4.80;;
41201;SDS011;26936;50.524;8.684;2023-05-07T12:44:23;5.20;;;4.70;;
41201;SDS011;26936;50.524;8.684;2023-05-07T12:46:49;7.07;;;4.55;;
41201;SDS011;26936;50.524;8.684;2023-05-07T12:49:14;6.68;;;5.28;;
41201;SDS011;26936;50.524;8.684;2023-05-07T12:51:40;6.95;;;5.07;;
41201;SDS011;26936;50.524;8.684;2023-05-07T12:54:05;6.38;;;4.53;;
41201;SDS011;26936;50.524;8.684;2023-05-07T12:56:31;6.72;;;5.18;;
41201;SDS011;26936;50.524;8.684;2023-05-07T12:58:59;4.55;;;4.00;;
41201;SDS011;26936;50.524;8.684;2023-05-07T13:01:28;8.27;;;4.85;;
41201;SDS011;26936;50.524;8.684;2023-05-07T13:03:54;6.30;;;4.53;;
41201;SDS011;26936;50.524;8.684;2023-05-07T13:06:20;5.18;;;4.30;;
41201;SDS011;26936;50.524;8.684;2023-05-07T13:08:45;5.68;;;4.50;;
41201;SDS011;26936;50.524;8.684;2023-05-07T13:11:10;5.40;;;4.43;;
41201;SDS011;26936;50.524;8.684;2023-05-07T13:13:37;9.13;;;4.45;;
41201;SDS011;26936;50.524;8.684;2023-05-07T13:16:05;4.05;;;3.30;;
41201;SDS011;26936;50.524;8.684;2023-05-07T13:18:34;5.03;;;3.72;;
41201;SDS011;26936;50.524;8.684;2023-05-07T13:21:00;5.05;;;4.20;;
41201;SDS011;26936;50.524;8.684;2023-05-07T13:23:26;6.47;;;4.07;;
41201;SDS011;26936;50.524;8.684;2023-05-07T13:25:51;6.82;;;4.32;;
41201;SDS011;26936;50.524;8.684;2023-05-07T13:28:20;6.75;;;4.90;;
41201;SDS011;26936;50.524;8.684;2023-05-07T13:30:46;5.22;;;4.45;;
41201;SDS011;26936;50.524;8.684;2023-05-07T13:33:12;5.70;;;3.90;;
41201;SDS011;26936;50.524;8.684;2023-05-07T13:35:38;4.82;;;3.70;;
41201;SDS011;26936;50.524;8.684;2023-05-07T13:38:03;6.45;;;4.25;;
41201;SDS011;26936;50.524;8.684;2023-05-07T13:40:29;6.63;;;4.13;;
41201;SDS011;26936;50.524;8.684;2023-05-07T13:42:56;5.68;;;3.80;;
41201;SDS011;26936;50.524;8.684;2023-05-07T13:45:23;6.13;;;3.70;;
41201;SDS011;26936;50.524;8.684;2023-05-07T13:47:50;5.00;;;3.90;;
41201;SDS011;26936;50.524;8.684;2023-05-07T13:50:16;5.43;;;3.75;;
41201;SDS011;26936;50.524;8.684;2023-05-07T13:52:42;4.68;;;3.47;;
41201;SDS011;26936;50.524;8.684;2023-05-07T13:55:15;3.83;;;2.70;;
41201;SDS011;26936;50.524;8.684;2023-05-07T13:57:44;2.60;;;2.15;;
41201;SDS011;26936;50.524;8.684;2023-05-07T14:00:10;3.97;;;2.30;;
41201;SDS011;26936;50.524;8.684;2023-05-07T14:02:36;3.60;;;2.10;;
41201;SDS011;26936;50.524;8.684;2023-05-07T14:05:01;2.40;;;2.20;;
41201;SDS011;26936;50.524;8.684;2023-05-07T14:07:27;2.83;;;2.20;;
41201;SDS011;26936;50.524;8.684;2023-05-07T14:09:53;3.92;;;2.30;;
41201;SDS011;26936;50.524;8.684;2023-05-07T14:12:19;3.17;;;2.72;;
41201;SDS011;26936;50.524;8.684;2023-05-07T14:14:44;4.57;;;2.40;;
41201;SDS011;26936;50.524;8.684;2023-05-07T14:17:10;4.30;;;2.58;;
41201;SDS011;26936;50.524;8.684;2023-05-07T14:19:35;2.90;;;1.93;;
41201;SDS011;26936;50.524;8.684;2023-05-07T14:22:00;2.10;;;1.83;;
41201;SDS011;26936;50.524;8.684;2023-05-07T14:24:26;3.17;;;2.60;;
41201;SDS011;26936;50.524;8.684;2023-05-07T14:26:51;4.30;;;3.30;;
41201;SDS011;26936;50.524;8.684;2023-05-07T14:29:16;6.47;;;3.42;;
41201;SDS011;26936;50.524;8.684;2023-05-07T14:31:44;4.72;;;3.20;;
41201;SDS011;26936;50.524;8.684;2023-05-07T14:34:09;4.38;;;2.85;;
41201;SDS011;26936;50.524;8.684;2023-05-07T14:36:35;3.73;;;3.20;;
41201;SDS011;26936;50.524;8.684;2023-05-07T14:39:00;5.47;;;3.33;;
41201;SDS011;26936;50.524;8.684;2023-05-07T14:41:25;4.90;;;3.30;;
41201;SDS011;26936;50.524;8.684;2023-05-07T14:43:51;3.60;;;2.77;;
41201;SDS011;26936;50.524;8.684;2023-05-07T14:46:17;3.63;;;3.08;;
41201;SDS011;26936;50.524;8.684;2023-05-07T14:48:43;3.92;;;3.00;;
41201;SDS011;26936;50.524;8.684;2023-05-07T14:51:10;6.90;;;3.03;;
41201;SDS011;26936;50.524;8.684;2023-05-07T14:53:35;2.78;;;2.47;;
41201;SDS011;26936;50.524;8.684;2023-05-07T14:56:01;4.40;;;2.83;;
41201;SDS011;26936;50.524;8.684;2023-05-07T14:58:26;6.65;;;2.83;;